Time;durP1;ratioP1;P1;durP2;ratioP2;P2;SDS_P1;SDS_P2;PMS_P1;PMS_P2;Temp;Humidity;BMP_temperature;BMP_pressure;BME280_temperature;BME280_humidity;BME280_pressure;Samples;Min_cycle;Max_cycle;Signal;HPM_P1;HPM_P2
2021/07/17 00:01:17;;;;;;;13.50;9.45;;;538.20;2406.40;;;;;;5016064;28;20080;-78
2021/07/17 00:03:43;;;;;;;16.27;8.70;;;538.40;2406.40;;;;;;5016462;28;20018;-79
2021/07/17 00:06:09;;;;;;;16.00;9.45;;;563.20;2432.00;;;;;;5016148;28;20017;-78
2021/07/17 00:08:35;;;;;;;14.45;9.85;;;538.30;2406.40;;;;;;5033271;28;20036;-78
2021/07/17 00:11:01;;;;;;;13.65;8.10;;;538.30;2406.40;;;;;;5016107;28;20061;-80
2021/07/17 00:13:27;;;;;;;18.75;9.25;;;538.40;2406.40;;;;;;5033881;28;20030;-80
2021/07/17 00:15:53;;;;;;;15.65;10.68;;;538.40;2406.40;;;;;;5015940;28;20029;-79
2021/07/17 00:18:19;;;;;;;12.27;9.65;;;538.00;2406.40;;;;;;5033822;28;20018;-78
2021/07/17 00:20:47;;;;;;;16.08;9.90;;;538.00;2406.40;;;;;;5015951;28;20029;-80
2021/07/17 00:23:13;;;;;;;12.23;9.20;;;538.00;2406.40;;;;;;5016135;28;20032;-78
2021/07/17 00:25:39;;;;;;;13.40;10.48;;;537.80;2406.40;;;;;;5016009;28;20060;-79
2021/07/17 00:28:06;;;;;;;16.15;11.75;;;538.00;2406.40;;;;;;5015725;28;20046;-78
2021/07/17 00:30:32;;;;;;;13.23;9.90;;;537.80;2406.40;;;;;;5016033;28;20079;-78
2021/07/17 00:32:58;;;;;;;12.40;10.32;;;538.00;2406.40;;;;;;5015888;28;20025;-79
2021/07/17 00:35:24;;;;;;;15.93;11.10;;;538.00;2406.40;;;;;;5015690;28;20033;-78
2021/07/17 00:37:50;;;;;;;17.95;11.10;;;537.90;2406.40;;;;;;5017384;28;20651;-79
2021/07/17 00:40:19;;;;;;;15.82;12.43;;;538.00;2406.40;;;;;;5037702;28;20408;-78
2021/07/17 00:42:47;;;;;;;15.55;13.95;;;537.60;2406.40;;;;;;5019665;28;20120;-79
2021/07/17 00:45:13;;;;;;;19.17;15.07;;;512.80;2380.80;;;;;;5019879;28;20018;-80
2021/07/17 00:47:40;;;;;;;25.10;15.02;;;512.80;2380.80;;;;;;5019876;28;20028;-80
2021/07/17 00:50:09;;;;;;;24.65;17.27;;;512.90;2380.80;;;;;;5019497;28;20022;-80
2021/07/17 00:52:35;;;;;;;21.65;18.00;;;537.60;2406.40;;;;;;5037366;28;20508;-79
2021/07/17 00:55:06;;;;;;;21.65;18.35;;;537.60;2406.40;;;;;;5019774;28;20026;-79
2021/07/17 00:57:34;;;;;;;26.10;20.52;;;537.60;2406.40;;;;;;5019115;28;20079;-79
2021/07/17 01:00:03;;;;;;;31.33;22.20;;;537.60;2406.40;;;;;;5037399;28;20029;-81
2021/07/17 01:02:35;;;;;;;27.35;21.33;;;537.70;2406.40;;;;;;5019619;28;20029;-79
2021/07/17 01:05:01;;;;;;;29.08;22.23;;;537.80;2406.40;;;;;;5019319;28;20021;-78
2021/07/17 01:07:27;;;;;;;31.70;23.80;;;537.60;2406.40;;;;;;5036850;28;20028;-79
2021/07/17 01:09:53;;;;;;;29.02;20.88;;;512.90;2380.80;;;;;;5036606;28;20021;-79
2021/07/17 01:12:19;;;;;;;30.80;21.77;;;537.60;2406.40;;;;;;5019368;28;20065;-80
2021/07/17 01:14:46;;;;;;;27.52;20.52;;;537.60;2406.40;;;;;;5019404;28;20021;-79
2021/07/17 01:17:12;;;;;;;25.38;18.27;;;537.60;2406.40;;;;;;5019097;28;20025;-79
2021/07/17 01:19:38;;;;;;;22.27;17.92;;;537.70;2406.40;;;;;;5037129;28;20025;-79
2021/07/17 01:22:04;;;;;;;26.48;19.27;;;537.60;2406.40;;;;;;5019222;28;20037;-80
2021/07/17 01:24:30;;;;;;;19.55;16.52;;;537.60;2406.40;;;;;;5036369;28;20032;-79
2021/07/17 01:26:56;;;;;;;24.25;18.02;;;537.70;2406.40;;;;;;5019033;28;20075;-80
2021/07/17 01:29:22;;;;;;;22.10;16.30;;;537.70;2406.40;;;;;;5019044;28;20025;-80
2021/07/17 01:31:48;;;;;;;24.50;18.15;;;537.90;2406.40;;;;;;5018298;28;20477;-80
2021/07/17 01:34:15;;;;;;;23.52;18.52;;;538.00;2406.40;;;;;;5036728;28;20036;-80
2021/07/17 01:36:41;;;;;;;22.75;17.27;;;538.00;2406.40;;;;;;5019069;28;20127;-79
2021/07/17 01:39:07;;;;;;;23.20;16.10;;;538.00;2406.40;;;;;;5018597;28;20545;-79
2021/07/17 01:41:33;;;;;;;24.75;16.98;;;538.00;2406.40;;;;;;5018981;28;20053;-80
2021/07/17 01:43:59;;;;;;;23.00;18.38;;;538.00;2406.40;;;;;;5018880;28;20056;-80
2021/07/17 01:46:27;;;;;;;25.15;19.25;;;537.80;2406.40;;;;;;5018379;28;20022;-78
2021/07/17 01:48:55;;;;;;;22.38;16.92;;;512.90;2380.80;;;;;;5036415;28;20025;-79
2021/07/17 01:51:21;;;;;;;23.33;17.77;;;512.90;2380.80;;;;;;5036363;28;20033;-78
2021/07/17 01:53:48;;;;;;;21.60;15.10;;;537.70;2406.40;;;;;;5018333;28;20120;-79
2021/07/17 01:56:17;;;;;;;20.25;15.93;;;537.70;2406.40;;;;;;5018707;28;20025;-79
2021/07/17 01:58:43;;;;;;;22.52;15.65;;;537.70;2406.40;;;;;;5018121;28;20033;-80
2021/07/17 02:01:10;;;;;;;21.88;15.02;;;537.60;2406.40;;;;;;5018545;28;20064;-80
2021/07/17 02:03:36;;;;;;;21.92;16.58;;;537.70;2406.40;;;;;;5036099;28;20045;-79
2021/07/17 02:06:04;;;;;;;25.48;18.45;;;537.70;2406.40;;;;;;5018286;28;20025;-79
2021/07/17 02:08:31;;;;;;;28.10;21.20;;;537.70;2406.40;;;;;;5018409;28;20116;-79
2021/07/17 02:10:57;;;;;;;31.40;21.98;;;537.70;2406.40;;;;;;5018285;28;20026;-79
2021/07/17 02:13:23;;;;;;;31.15;22.17;;;537.60;2406.40;;;;;;5017994;28;20025;-79
2021/07/17 02:15:51;;;;;;;29.20;22.80;;;537.70;2406.40;;;;;;5018190;28;20374;-79
2021/07/17 02:18:26;;;;;;;40.00;24.58;;;537.60;2406.40;;;;;;5018100;28;20120;-80
2021/07/17 02:20:53;;;;;;;38.47;24.75;;;537.60;2406.40;;;;;;5017764;28;20021;-79
2021/07/17 02:23:19;;;;;;;41.28;25.92;;;537.60;2406.40;;;;;;5017976;28;20021;-80
2021/07/17 02:25:45;;;;;;;35.42;25.27;;;537.60;2406.40;;;;;;5017714;28;20027;-80
2021/07/17 02:28:11;;;;;;;30.65;20.73;;;512.60;2380.80;;;;;;5035280;28;20049;-80
2021/07/17 02:30:37;;;;;;;29.58;20.60;;;537.60;2406.40;;;;;;5018032;28;20072;-78
2021/07/17 02:33:02;;;;;;;35.40;23.52;;;512.90;2380.80;;;;;;5017687;28;20029;-80
2021/07/17 02:35:29;;;;;;;33.03;22.75;;;512.90;2380.80;;;;;;5017631;28;20048;-82
2021/07/17 02:37:55;;;;;;;30.60;21.80;;;512.90;2380.80;;;;;;5017958;28;20377;-79
2021/07/17 02:40:21;;;;;;;27.75;20.90;;;512.90;2380.80;;;;;;5017955;28;20064;-79
2021/07/17 02:42:47;;;;;;;23.08;19.95;;;512.80;2380.80;;;;;;5017602;28;20400;-80
2021/07/17 02:45:13;;;;;;;25.38;20.40;;;512.80;2380.80;;;;;;5034999;28;20028;-79
2021/07/17 02:47:39;;;;;;;24.02;19.92;;;512.80;2380.80;;;;;;5017592;28;20108;-79
2021/07/17 02:50:07;;;;;;;26.25;19.95;;;512.80;2380.80;;;;;;5035233;28;20025;-79
2021/07/17 02:52:32;;;;;;;26.00;20.30;;;512.90;2380.80;;;;;;5017477;28;20028;-79
2021/07/17 02:54:58;;;;;;;30.60;21.65;;;512.80;2380.80;;;;;;5017288;28;20026;-81
2021/07/17 02:57:24;;;;;;;22.23;17.92;;;512.90;2380.80;;;;;;5017551;28;20025;-78
2021/07/17 02:59:50;;;;;;;24.15;19.25;;;537.70;2406.40;;;;;;5017133;28;20049;-80
2021/07/17 03:02:16;;;;;;;28.95;19.75;;;537.60;2406.40;;;;;;5016983;28;20033;-77
2021/07/17 03:04:42;;;;;;;27.10;19.25;;;512.80;2380.80;;;;;;5017387;28;20040;-80
2021/07/17 03:07:08;;;;;;;25.08;18.60;;;512.80;2380.80;;;;;;5034751;28;20445;-79
2021/07/17 03:09:33;;;;;;;26.17;20.58;;;512.90;2380.80;;;;;;5016866;28;20025;-80
2021/07/17 03:11:59;;;;;;;31.40;22.45;;;537.60;2406.40;;;;;;5017048;28;20025;-78
2021/07/17 03:14:25;;;;;;;36.78;23.50;;;512.70;2380.80;;;;;;5017242;28;20032;-81
2021/07/17 03:16:51;;;;;;;37.00;23.83;;;512.70;2380.80;;;;;;5016870;28;20025;-80
2021/07/17 03:19:17;;;;;;;33.03;22.80;;;512.70;2380.80;;;;;;5034846;28;20398;-80
2021/07/17 03:21:43;;;;;;;35.50;25.52;;;512.70;2380.80;;;;;;5017115;28;20370;-81
2021/07/17 03:24:08;;;;;;;43.28;28.08;;;512.70;2380.80;;;;;;5016834;28;20017;-79
2021/07/17 03:26:34;;;;;;;44.10;25.77;;;512.70;2380.80;;;;;;5016916;28;20450;-80
2021/07/17 03:29:00;;;;;;;44.63;26.55;;;512.50;2380.80;;;;;;5016455;28;20405;-80
2021/07/17 03:31:30;;;;;;;35.40;23.73;;;512.60;2380.80;;;;;;5016458;28;20029;-80
2021/07/17 03:34:00;;;;;;;37.85;24.95;;;512.50;2380.80;;;;;;5016827;28;20026;-78
2021/07/17 03:36:27;;;;;;;36.65;21.60;;;512.50;2380.80;;;;;;5016925;28;20025;-79
2021/07/17 03:38:53;;;;;;;29.02;20.60;;;512.60;2380.80;;;;;;5016511;28;20394;-79
2021/07/17 03:41:19;;;;;;;29.77;20.20;;;512.60;2380.80;;;;;;5034472;28;20025;-79
2021/07/17 03:43:46;;;;;;;32.33;19.38;;;512.60;2380.80;;;;;;5016497;28;20022;-82
2021/07/17 03:46:12;;;;;;;30.38;19.35;;;512.70;2380.80;;;;;;5034058;28;20120;-80
2021/07/17 03:48:39;;;;;;;28.73;20.00;;;512.70;2380.80;;;;;;5034022;28;20072;-78
2021/07/17 03:51:06;;;;;;;28.58;18.20;;;512.80;2380.80;;;;;;5016273;28;20112;-80
2021/07/17 03:53:32;;;;;;;28.55;19.98;;;512.70;2380.80;;;;;;5034164;28;20088;-80
2021/07/17 03:55:59;;;;;;;24.15;18.40;;;512.70;2380.80;;;;;;5016586;28;20028;-80
2021/07/17 03:58:25;;;;;;;25.50;17.90;;;512.80;2380.80;;;;;;5034143;28;20021;-80
2021/07/17 04:00:51;;;;;;;30.13;18.52;;;512.80;2380.80;;;;;;5016285;28;20021;-79
2021/07/17 04:03:17;;;;;;;29.55;19.42;;;512.80;2380.80;;;;;;5034063;28;20026;-81
2021/07/17 04:05:43;;;;;;;25.00;17.35;;;512.90;2380.80;;;;;;5016184;28;20512;-80
2021/07/17 04:08:09;;;;;;;23.27;17.98;;;512.90;2380.80;;;;;;5016357;28;20025;-80
2021/07/17 04:10:35;;;;;;;28.70;19.48;;;512.90;2380.80;;;;;;5016212;28;20021;-79
2021/07/17 04:13:04;;;;;;;28.20;19.85;;;512.80;2380.80;;;;;;5032742;28;20361;-81
2021/07/17 04:15:30;;;;;;;25.40;17.67;;;512.80;2380.80;;;;;;5016390;28;20033;-81
2021/07/17 04:17:56;;;;;;;25.33;17.92;;;512.80;2380.80;;;;;;5016070;28;20358;-80
2021/07/17 04:20:22;;;;;;;24.45;16.90;;;512.80;2380.80;;;;;;5016007;28;20029;-79
2021/07/17 04:22:48;;;;;;;22.23;17.20;;;512.90;2380.80;;;;;;5016203;28;20473;-80
2021/07/17 04:25:14;;;;;;;20.45;14.98;;;512.80;2380.80;;;;;;5033541;28;20017;-79
2021/07/17 04:27:40;;;;;;;18.00;13.68;;;512.90;2380.80;;;;;;5015467;28;20045;-80
2021/07/17 04:30:08;;;;;;;17.40;15.02;;;512.90;2380.80;;;;;;5016095;28;20021;-82
2021/07/17 04:32:35;;;;;;;17.13;13.93;;;512.80;2380.80;;;;;;5015617;28;20029;-81
2021/07/17 04:35:01;;;;;;;20.52;14.68;;;512.90;2380.80;;;;;;5015638;28;20038;-80
2021/07/17 04:37:29;;;;;;;19.00;14.07;;;512.90;2380.80;;;;;;5016046;28;20026;-80
2021/07/17 04:39:55;;;;;;;14.30;12.15;;;512.80;2380.80;;;;;;5015841;28;20025;-80
2021/07/17 04:42:21;;;;;;;15.73;11.43;;;512.90;2380.80;;;;;;5015895;28;20032;-80
2021/07/17 04:44:46;;;;;;;17.70;12.55;;;512.90;2380.80;;;;;;5016030;28;20496;-80
2021/07/17 04:47:12;;;;;;;12.48;10.35;;;512.90;2380.80;;;;;;5015707;28;20017;-81
2021/07/17 04:49:39;;;;;;;13.10;11.05;;;512.80;2380.80;;;;;;5015902;28;20021;-83
2021/07/17 04:52:05;;;;;;;12.07;10.57;;;512.90;2380.80;;;;;;5015944;28;20401;-80
2021/07/17 04:54:31;;;;;;;14.98;10.95;;;512.90;2380.80;;;;;;5015712;28;20060;-82
2021/07/17 04:56:57;;;;;;;12.93;10.45;;;512.90;2380.80;;;;;;5015825;28;20425;-80
2021/07/17 04:59:23;;;;;;;13.80;11.23;;;512.90;2380.80;;;;;;5015931;28;20060;-81
2021/07/17 05:01:49;;;;;;;13.35;11.18;;;537.60;2406.40;;;;;;5015490;28;20052;-81
2021/07/17 05:04:14;;;;;;;17.15;10.07;;;537.60;2406.40;;;;;;5015774;28;20025;-81
2021/07/17 05:06:40;;;;;;;14.52;10.65;;;537.60;2406.40;;;;;;5015929;28;20026;-82
2021/07/17 05:09:06;;;;;;;12.20;9.88;;;537.60;2406.40;;;;;;5033219;28;20521;-82
2021/07/17 05:11:32;;;;;;;13.65;10.65;;;537.60;2406.40;;;;;;5015737;28;20047;-79
2021/07/17 05:13:58;;;;;;;12.32;11.00;;;537.70;2406.40;;;;;;5015609;28;20116;-78
2021/07/17 05:16:24;;;;;;;12.75;10.32;;;537.80;2406.40;;;;;;5033245;28;20112;-82
2021/07/17 05:18:49;;;;;;;13.57;10.38;;;537.80;2406.40;;;;;;5015785;28;20021;-79
2021/07/17 05:21:18;;;;;;;11.80;9.82;;;537.80;2406.40;;;;;;5015524;28;20458;-80
2021/07/17 05:23:44;;;;;;;14.63;10.65;;;537.80;2406.40;;;;;;5016549;28;20029;-80
2021/07/17 05:26:10;;;;;;;13.80;9.88;;;537.90;2406.40;;;;;;5019189;28;20021;-81
2021/07/17 05:28:37;;;;;;;10.57;9.07;;;537.90;2406.40;;;;;;5018987;28;20081;-81
2021/07/17 05:31:03;;;;;;;11.98;9.27;;;537.90;2406.40;;;;;;5018925;28;20025;-79
2021/07/17 05:33:29;;;;;;;12.75;10.50;;;538.00;2406.40;;;;;;5019032;28;20039;-80
2021/07/17 05:35:54;;;;;;;11.68;8.20;;;537.80;2406.40;;;;;;5018839;28;20029;-79
2021/07/17 05:38:20;;;;;;;12.52;8.75;;;537.80;2406.40;;;;;;5036350;28;20025;-82
2021/07/17 05:40:46;;;;;;;10.38;8.00;;;537.80;2406.40;;;;;;5019144;28;20018;-82
2021/07/17 05:43:12;;;;;;;10.68;8.85;;;538.00;2406.40;;;;;;5018661;28;20450;-81
2021/07/17 05:45:38;;;;;;;14.57;8.80;;;537.90;2406.40;;;;;;5036481;28;20022;-81
2021/07/17 05:48:05;;;;;;;8.95;7.93;;;538.00;2406.40;;;;;;5018768;28;20033;-81
2021/07/17 05:50:31;;;;;;;9.65;8.55;;;538.00;2406.40;;;;;;5018669;28;20052;-81
2021/07/17 05:52:57;;;;;;;10.90;8.30;;;538.00;2406.40;;;;;;5018808;28;20025;-80
2021/07/17 05:55:23;;;;;;;11.82;9.25;;;538.00;2406.40;;;;;;5036363;28;20066;-80
2021/07/17 05:57:49;;;;;;;10.88;8.48;;;538.00;2406.40;;;;;;5018726;28;20589;-81
2021/07/17 06:00:19;;;;;;;12.82;9.23;;;538.10;2406.40;;;;;;5018515;28;20473;-80
2021/07/17 06:02:46;;;;;;;12.82;8.93;;;538.10;2406.40;;;;;;5018530;28;20030;-81
2021/07/17 06:05:11;;;;;;;12.23;9.30;;;538.20;2406.40;;;;;;5018245;28;20417;-80
2021/07/17 06:07:37;;;;;;;13.10;9.23;;;538.10;2406.40;;;;;;5035976;28;20155;-81
2021/07/17 06:10:04;;;;;;;12.80;9.20;;;538.20;2406.40;;;;;;5018268;28;20022;-80
2021/07/17 06:12:30;;;;;;;10.55;8.80;;;538.30;2406.40;;;;;;5017805;28;20028;-79
2021/07/17 06:14:56;;;;;;;12.60;9.32;;;538.40;2406.40;;;;;;5018327;28;20022;-79
2021/07/17 06:17:22;;;;;;;12.48;8.77;;;538.50;2406.40;;;;;;5018148;28;20022;-81
2021/07/17 06:19:48;;;;;;;9.35;8.10;;;538.50;2406.40;;;;;;5035826;28;20049;-79
2021/07/17 06:22:14;;;;;;;9.80;8.80;;;563.30;2432.00;;;;;;5018164;28;20025;-81
2021/07/17 06:24:40;;;;;;;12.73;9.23;;;563.30;2432.00;;;;;;5035364;28;20031;-80
2021/07/17 06:27:07;;;;;;;10.20;9.05;;;563.40;2432.00;;;;;;5017977;28;20117;-79
2021/07/17 06:29:36;;;;;;;10.93;9.05;;;563.40;2432.00;;;;;;5017844;28;20025;-80
2021/07/17 06:32:03;;;;;;;10.68;9.25;;;563.60;2432.00;;;;;;5017134;28;20061;-79
2021/07/17 06:34:29;;;;;;;12.63;9.10;;;563.70;2432.00;;;;;;5017194;28;20461;-80
2021/07/17 06:36:55;;;;;;;12.23;8.82;;;564.00;2432.00;;;;;;5017035;28;20049;-81
2021/07/17 06:39:21;;;;;;;10.45;8.38;;;564.10;2432.00;;;;;;5017473;28;20026;-80
2021/07/17 06:41:47;;;;;;;11.77;8.90;;;564.10;2432.00;;;;;;5017650;28;20117;-80
2021/07/17 06:44:13;;;;;;;10.63;8.95;;;564.10;2432.00;;;;;;5017007;28;20026;-79
2021/07/17 06:46:39;;;;;;;13.52;8.82;;;564.10;2432.00;;;;;;5016953;28;20094;-80
2021/07/17 06:49:05;;;;;;;15.15;9.25;;;564.10;2432.00;;;;;;5016809;28;20026;-82
2021/07/17 06:51:35;;;;;;;11.48;8.30;;;589.00;2432.00;;;;;;5017175;28;20071;-78
2021/07/17 06:54:02;;;;;;;10.07;8.30;;;589.10;2432.00;;;;;;5017090;28;20175;-80
2021/07/17 06:56:28;;;;;;;9.75;8.02;;;589.20;2432.00;;;;;;5017659;28;20049;-79
2021/07/17 06:58:54;;;;;;;11.90;8.93;;;589.20;2432.00;;;;;;5035006;28;20101;-79
2021/07/17 07:01:20;;;;;;;9.05;7.47;;;589.20;2432.00;;;;;;5016770;28;20342;-79
2021/07/17 07:03:46;;;;;;;10.77;8.70;;;589.20;2432.00;;;;;;5034535;28;20089;-80
2021/07/17 07:06:12;;;;;;;8.95;8.05;;;589.20;2432.00;;;;;;5016871;28;20052;-80
2021/07/17 07:08:37;;;;;;;12.57;8.85;;;589.20;2432.00;;;;;;5017233;28;20108;-79
2021/07/17 07:11:04;;;;;;;12.57;9.20;;;589.20;2432.00;;;;;;5017124;28;20507;-78
2021/07/17 07:13:30;;;;;;;13.60;9.00;;;589.40;2432.00;;;;;;5016979;28;20374;-80
2021/07/17 07:15:56;;;;;;;12.45;9.95;;;589.40;2432.00;;;;;;5034077;28;20084;-80
2021/07/17 07:18:22;;;;;;;17.05;10.88;;;589.40;2432.00;;;;;;5016869;28;20025;-80
2021/07/17 07:20:48;;;;;;;10.10;8.98;;;589.50;2432.00;;;;;;5034751;28;20026;-79
2021/07/17 07:23:14;;;;;;;11.07;8.90;;;589.40;2432.00;;;;;;5017162;28;20460;-79
2021/07/17 07:25:40;;;;;;;11.85;8.57;;;589.50;2432.00;;;;;;5016995;28;20021;-79
2021/07/17 07:28:06;;;;;;;9.60;8.32;;;589.10;2432.00;;;;;;5016358;28;20076;-80
2021/07/17 07:30:32;;;;;;;16.02;8.70;;;589.50;2432.00;;;;;;5016810;28;20063;-80
2021/07/17 07:32:59;;;;;;;10.38;7.97;;;589.50;2432.00;;;;;;5016402;28;20029;-78
2021/07/17 07:35:25;;;;;;;9.07;7.45;;;589.50;2432.00;;;;;;5016754;28;20021;-82
2021/07/17 07:37:52;;;;;;;11.98;8.05;;;589.40;2432.00;;;;;;5016974;28;20021;-82
2021/07/17 07:40:19;;;;;;;11.35;8.02;;;589.50;2432.00;;;;;;5016883;28;20025;-82
2021/07/17 07:42:45;;;;;;;11.18;8.32;;;589.50;2432.00;;;;;;5016637;28;20120;-82
2021/07/17 07:45:12;;;;;;;10.88;8.25;;;589.50;2432.00;;;;;;5016648;28;20025;-81
2021/07/17 07:47:38;;;;;;;8.80;7.90;;;589.50;2432.00;;;;;;5016581;28;20053;-81
2021/07/17 07:50:05;;;;;;;12.18;7.57;;;589.50;2432.00;;;;;;5016264;28;20049;-79
2021/07/17 07:52:32;;;;;;;9.00;7.97;;;589.50;2432.00;;;;;;5015505;28;20037;-80
2021/07/17 07:54:57;;;;;;;15.50;9.10;;;589.70;2432.00;;;;;;5016326;28;20029;-79
2021/07/17 07:57:23;;;;;;;9.50;8.50;;;589.70;2432.00;;;;;;5034039;28;20044;-81
2021/07/17 07:59:49;;;;;;;12.13;9.15;;;589.60;2432.00;;;;;;5016127;28;20041;-82
2021/07/17 08:02:15;;;;;;;11.27;9.25;;;589.70;2432.00;;;;;;5015895;28;20412;-79
2021/07/17 08:04:41;;;;;;;9.00;8.02;;;589.60;2432.00;;;;;;5033356;28;20017;-81
2021/07/17 08:07:08;;;;;;;12.73;8.65;;;589.70;2432.00;;;;;;5015868;28;20021;-81
2021/07/17 08:09:34;;;;;;;12.00;9.00;;;614.40;2432.00;;;;;;5015480;28;20067;-80
2021/07/17 08:12:00;;;;;;;9.18;8.10;;;614.40;2432.00;;;;;;5015587;28;20036;-80
2021/07/17 08:14:26;;;;;;;12.48;9.48;;;614.40;2432.00;;;;;;5015877;28;20029;-81
2021/07/17 08:16:52;;;;;;;12.80;8.70;;;614.60;2432.00;;;;;;5015514;28;20112;-82
2021/07/17 08:19:17;;;;;;;11.35;7.95;;;614.70;2432.00;;;;;;5007734;28;20116;-84
2021/07/17 08:21:43;;;;;;;9.57;7.85;;;614.80;2432.00;;;;;;5015705;28;20074;-80
2021/07/17 08:24:09;;;;;;;10.18;7.97;;;615.00;2432.00;;;;;;5009727;28;20025;-81
2021/07/17 08:26:37;;;;;;;16.27;8.80;;;614.90;2432.00;;;;;;5004671;28;20017;-78
2021/07/17 08:29:03;;;;;;;11.02;9.60;;;614.90;2432.00;;;;;;5005162;28;20132;-80
2021/07/17 08:31:29;;;;;;;11.25;7.50;;;614.90;2432.00;;;;;;5021989;28;20026;-82
2021/07/17 08:33:55;;;;;;;9.48;7.57;;;615.00;2432.00;;;;;;5007399;28;20033;-81
2021/07/17 08:36:21;;;;;;;9.40;7.93;;;615.00;2432.00;;;;;;5005967;28;20029;-80
2021/07/17 08:38:47;;;;;;;11.50;7.68;;;615.10;2432.00;;;;;;5027457;28;20025;-83
2021/07/17 08:41:13;;;;;;;11.27;7.07;;;615.20;2432.00;;;;;;5023617;28;20465;-81
2021/07/17 08:43:39;;;;;;;14.52;7.70;;;615.20;2432.00;;;;;;5026745;28;20396;-81
2021/07/17 08:46:06;;;;;;;10.40;7.57;;;615.30;2432.00;;;;;;5015539;28;20025;-80
2021/07/17 08:48:35;;;;;;;12.85;9.05;;;615.30;2432.00;;;;;;5015842;28;20021;-81
2021/07/17 08:51:01;;;;;;;12.45;8.70;;;615.20;2432.00;;;;;;5016361;28;20464;-82
2021/07/17 08:53:28;;;;;;;12.30;7.45;;;615.30;2432.00;;;;;;5016130;28;20512;-82
2021/07/17 08:55:58;;;;;;;10.25;7.38;;;640.20;2432.00;;;;;;5010412;28;20454;-84
2021/07/17 08:58:24;;;;;;;11.50;8.30;;;640.20;2432.00;;;;;;5008383;28;20021;-82
2021/07/17 09:00:50;;;;;;;9.20;7.60;;;640.20;2432.00;;;;;;5015109;28;20349;-84
2021/07/17 09:03:18;;;;;;;12.65;9.13;;;640.40;2432.00;;;;;;5012847;28;20034;-83
2021/07/17 09:05:46;;;;;;;12.60;8.38;;;640.60;2432.00;;;;;;5010202;28;20029;-83
2021/07/17 09:08:13;;;;;;;11.52;7.53;;;640.60;2432.00;;;;;;5012017;28;20079;-83
2021/07/17 09:10:47;;;;;;;13.50;7.93;;;640.60;2432.00;;;;;;5008799;28;20108;-82
2021/07/17 09:13:31;;;;;;;9.25;7.53;;;640.50;2432.00;;;;;;5014101;28;20104;-83
2021/07/17 09:16:09;;;;;;;13.20;7.78;;;640.60;2432.00;;;;;;5018080;28;20026;-82
2021/07/17 09:18:48;;;;;;;11.07;8.15;;;640.60;2432.00;;;;;;5019668;28;20112;-84
2021/07/17 09:21:29;;;;;;;9.25;7.28;;;640.80;2432.00;;;;;;5037494;28;20022;-81
2021/07/17 09:24:13;;;;;;;10.23;8.30;;;640.90;2432.00;;;;;;5037354;28;20060;-82
2021/07/17 09:26:48;;;;;;;15.23;7.95;;;640.90;2432.00;;;;;;5019562;28;20025;-84
2021/07/17 09:29:15;;;;;;;9.55;7.15;;;665.60;2432.00;;;;;;5019316;28;20072;-82
2021/07/17 09:31:50;;;;;;;10.18;7.28;;;666.10;2432.00;;;;;;5019347;28;20036;-82
2021/07/17 09:34:18;;;;;;;11.68;8.13;;;666.30;2432.00;;;;;;5037092;28;20071;-83
2021/07/17 09:36:58;;;;;;;10.38;8.63;;;665.90;2432.00;;;;;;5019559;28;20466;-83
2021/07/17 09:39:31;;;;;;;9.38;7.18;;;666.00;2432.00;;;;;;5019119;28;20021;-82
2021/07/17 09:42:05;;;;;;;8.88;6.88;;;666.30;2432.00;;;;;;5019288;28;20121;-82
2021/07/17 09:44:33;;;;;;;11.40;7.18;;;666.30;2432.00;;;;;;5018841;28;20036;-83
2021/07/17 09:46:59;;;;;;;12.27;7.55;;;691.30;2432.00;;;;;;5019429;28;20461;-84
2021/07/17 09:49:27;;;;;;;14.18;7.25;;;666.50;2432.00;;;;;;5019198;28;20032;-83
2021/07/17 09:52:25;;;;;;;10.57;6.47;;;666.40;2432.00;;;;;;5018788;28;20029;-83
2021/07/17 09:55:05;;;;;;;14.35;8.07;;;691.40;2432.00;;;;;;4965664;28;20137;-81
2021/07/17 09:57:32;;;;;;;12.00;6.82;;;691.50;2432.00;;;;;;5019288;28;20639;-83
2021/07/17 10:00:06;;;;;;;10.82;6.82;;;;;;;;;;5019087;28;20033;-84
2021/07/17 10:02:35;;;;;;;15.07;7.05;;;;;;;;;;5019369;28;20025;-84
2021/07/17 10:05:02;;;;;;;10.60;6.22;;;;;;;;;;5018961;28;20017;-86
2021/07/17 10:07:29;;;;;;;9.27;6.35;;;;;;;;;;5018702;28;20358;-85
2021/07/17 10:09:55;;;;;;;12.02;6.63;;;;;;;;;;5017989;28;20140;-87
2021/07/17 10:12:31;;;;;;;10.95;7.45;;;;;;;;;;5019567;28;20025;-86
2021/07/17 10:14:57;;;;;;;11.80;6.88;;;;;;;;;;5019525;28;20466;-86
2021/07/17 10:17:32;;;;;;;8.15;6.95;;;;;;;;;;5019184;28;20537;-87
2021/07/17 10:20:00;;;;;;;11.15;7.28;;;;;;;;;;5018907;28;20350;-86
2021/07/17 10:22:26;;;;;;;9.65;7.00;;;;;;;;;;5019386;28;20022;-86
2021/07/17 10:24:53;;;;;;;11.75;6.47;;;;;;;;;;5018873;28;20108;-86
2021/07/17 10:27:20;;;;;;;9.57;6.50;;;;;;;;;;5015658;28;20421;-87
2021/07/17 10:29:46;;;;;;;8.50;6.90;;;;;;;;;;4999402;28;20046;-86
2021/07/17 10:32:12;;;;;;;8.20;5.70;;;;;;;;;;4999604;28;20028;-87
2021/07/17 10:34:39;;;;;;;15.40;7.00;;;;;;;;;;4999334;28;20022;-83
2021/07/17 10:37:18;;;;;;;9.77;6.22;;;691.40;2432.00;;;;;;4999165;28;20105;-87
2021/07/17 10:39:56;;;;;;;9.82;6.40;;;691.20;2432.00;;;;;;4998980;28;20021;-86
2021/07/17 10:42:23;;;;;;;8.13;6.57;;;691.20;2432.00;;;;;;4999170;28;20081;-88
2021/07/17 10:44:54;;;;;;;10.68;6.95;;;666.50;2432.00;;;;;;4998970;28;20057;-88
2021/07/17 10:47:20;;;;;;;11.52;6.88;;;666.50;2432.00;;;;;;4999207;28;20018;-86
2021/07/17 10:49:47;;;;;;;10.13;6.78;;;666.50;2432.00;;;;;;4999106;28;20022;-85
2021/07/17 10:52:13;;;;;;;10.82;5.75;;;666.50;2432.00;;;;;;4998636;28;20037;-85
2021/07/17 10:54:40;;;;;;;9.32;6.07;;;666.30;2432.00;;;;;;4998774;28;20033;-86
2021/07/17 10:57:07;;;;;;;7.85;5.70;;;666.50;2432.00;;;;;;4998701;28;20056;-86
2021/07/17 10:59:33;;;;;;;8.10;6.22;;;691.20;2432.00;;;;;;4998682;28;20410;-86
2021/07/17 11:02:04;;;;;;;10.63;5.97;;;691.40;2432.00;;;;;;4998655;28;20066;-85
2021/07/17 11:04:39;;;;;;;8.18;5.85;;;691.70;2432.00;;;;;;5016380;28;20068;-86
2021/07/17 11:07:17;;;;;;;10.52;6.38;;;691.60;2432.00;;;;;;4998527;28;20030;-85
2021/07/17 11:09:54;;;;;;;10.05;6.20;;;692.10;2432.00;;;;;;4998306;28;20044;-86
2021/07/17 11:12:29;;;;;;;8.68;6.13;;;716.80;2432.00;;;;;;4998692;28;20022;-86
2021/07/17 11:15:07;;;;;;;11.98;6.63;;;717.10;2432.00;;;;;;4998619;28;20096;-87
2021/07/17 11:17:45;;;;;;;12.98;5.97;;;717.40;2432.00;;;;;;4998225;28;20390;-85
2021/07/17 11:20:21;;;;;;;11.82;5.95;;;717.10;2432.00;;;;;;4998388;28;20029;-87
2021/07/17 11:23:00;;;;;;;11.25;6.47;;;716.80;2432.00;;;;;;4997859;28;20025;-87
2021/07/17 11:25:26;;;;;;;9.80;6.80;;;692.10;2432.00;;;;;;4998232;28;20025;-84
2021/07/17 11:27:52;;;;;;;10.60;6.88;;;691.80;2432.00;;;;;;4997418;28;20128;-86
2021/07/17 11:30:20;;;;;;;10.20;6.35;;;691.90;2432.00;;;;;;4998129;28;20022;-87
2021/07/17 11:33:04;;;;;;;10.07;6.68;;;691.60;2432.00;;;;;;4997976;28;20026;-88
2021/07/17 11:35:31;;;;;;;13.48;6.40;;;691.50;2432.00;;;;;;4997903;28;20509;-88
2021/07/17 11:37:58;;;;;;;12.05;6.85;;;691.60;2432.00;;;;;;4998018;28;20025;-85
2021/07/17 11:40:24;;;;;;;15.32;7.38;;;691.80;2432.00;;;;;;4997778;28;20121;-86
2021/07/17 11:42:50;;;;;;;11.98;7.15;;;691.70;2432.00;;;;;;4997964;28;20482;-85
2021/07/17 11:45:16;;;;;;;14.23;7.60;;;691.60;2432.00;;;;;;4997703;28;20033;-87
2021/07/17 11:47:43;;;;;;;13.52;7.53;;;691.70;2432.00;;;;;;4997868;28;20022;-86
2021/07/17 11:50:09;;;;;;;13.32;7.35;;;691.90;2432.00;;;;;;4997984;28;20030;-87
2021/07/17 11:52:38;;;;;;;9.98;6.95;;;716.80;2432.00;;;;;;4998195;28;20481;-89
2021/07/17 11:55:13;;;;;;;12.77;7.43;;;717.40;2432.00;;;;;;4998368;28;20037;-90
2021/07/17 11:57:44;;;;;;;13.02;6.82;;;717.30;2432.00;;;;;;4998226;28;20026;-91
2021/07/17 12:00:22;;;;;;;14.45;7.22;;;717.40;2432.00;;;;;;4999166;28;20513;-92
2021/07/17 12:06:41;;;;;;;9.02;6.32;;;717.40;2432.00;;;;;;5015805;28;20041;-92
2021/07/17 12:13:15;;;;;;;8.65;6.72;;;717.70;2432.00;;;;;;4973716;28;20488;-90
2021/07/17 12:16:25;;;;;;;11.20;7.20;;;742.40;2432.00;;;;;;4999419;28;20047;-92
2021/07/17 12:19:06;;;;;;;12.05;6.80;;;742.60;2432.00;;;;;;4999990;28;20030;-90
2021/07/17 12:21:32;;;;;;;8.95;6.90;;;742.80;2432.00;;;;;;4999502;28;20018;-88